sensor_id;sensor_type;location;lat;lon;timestamp;pressure;altitude;pressure_sealevel;temperature;humidity
56182;BME280;51963;46.052;14.544;2023-04-20T00:00:51;98021.09;;;10.83;100.00
56182;BME280;51963;46.052;14.544;2023-04-20T00:03:17;98001.38;;;10.79;100.00
56182;BME280;51963;46.052;14.544;2023-04-20T00:05:46;97994.88;;;10.82;100.00
56182;BME280;51963;46.052;14.544;2023-04-20T00:08:15;98007.09;;;10.90;100.00
56182;BME280;51963;46.052;14.544;2023-04-20T00:10:43;98002.59;;;10.83;100.00
56182;BME280;51963;46.052;14.544;2023-04-20T00:13:09;98009.50;;;10.78;100.00
56182;BME280;51963;46.052;14.544;2023-04-20T00:15:35;98010.34;;;10.85;100.00
56182;BME280;51963;46.052;14.544;2023-04-20T00:18:01;98008.69;;;10.77;100.00
56182;BME280;51963;46.052;14.544;2023-04-20T00:20:27;98002.16;;;10.73;100.00
56182;BME280;51963;46.052;14.544;2023-04-20T00:22:53;98000.97;;;10.82;100.00
56182;BME280;51963;46.052;14.544;2023-04-20T00:25:19;97976.50;;;10.60;100.00
56182;BME280;51963;46.052;14.544;2023-04-20T00:27:45;97989.53;;;10.68;100.00
56182;BME280;51963;46.052;14.544;2023-04-20T00:30:11;97996.84;;;10.66;100.00
56182;BME280;51963;46.052;14.544;2023-04-20T00:32:40;97994.38;;;10.65;100.00
56182;BME280;51963;46.052;14.544;2023-04-20T00:35:06;97992.97;;;10.69;100.00
56182;BME280;51963;46.052;14.544;2023-04-20T00:37:32;97986.66;;;10.63;100.00
56182;BME280;51963;46.052;14.544;2023-04-20T00:39:58;97970.94;;;10.48;100.00
56182;BME280;51963;46.052;14.544;2023-04-20T00:42:25;97987.81;;;10.54;100.00
56182;BME280;51963;46.052;14.544;2023-04-20T00:44:50;97993.72;;;10.56;100.00
56182;BME280;51963;46.052;14.544;2023-04-20T00:47:16;97989.47;;;10.55;100.00
56182;BME280;51963;46.052;14.544;2023-04-20T00:49:42;97988.22;;;10.51;100.00
56182;BME280;51963;46.052;14.544;2023-04-20T00:52:09;97985.34;;;10.46;100.00
56182;BME280;51963;46.052;14.544;2023-04-20T00:54:37;97983.72;;;10.45;100.00
56182;BME280;51963;46.052;14.544;2023-04-20T00:57:03;97986.19;;;10.46;100.00
56182;BME280;51963;46.052;14.544;2023-04-20T00:59:29;97980.06;;;10.46;100.00
56182;BME280;51963;46.052;14.544;2023-04-20T01:01:56;97963.69;;;10.28;100.00
56182;BME280;51963;46.052;14.544;2023-04-20T01:04:22;97989.00;;;10.45;100.00
56182;BME280;51963;46.052;14.544;2023-04-20T01:06:49;97986.34;;;10.45;100.00
56182;BME280;51963;46.052;14.544;2023-04-20T01:09:15;97988.59;;;10.48;100.00
56182;BME280;51963;46.052;14.544;2023-04-20T01:11:40;97988.38;;;10.42;100.00
56182;BME280;51963;46.052;14.544;2023-04-20T01:14:06;97991.16;;;10.34;100.00
56182;BME280;51963;46.052;14.544;2023-04-20T01:16:32;97985.31;;;10.39;100.00
56182;BME280;51963;46.052;14.544;2023-04-20T01:19:01;97962.03;;;10.21;100.00
56182;BME280;51963;46.052;14.544;2023-04-20T01:21:27;97978.34;;;10.31;100.00
56182;BME280;51963;46.052;14.544;2023-04-20T01:23:53;97979.16;;;10.32;100.00
56182;BME280;51963;46.052;14.544;2023-04-20T01:26:20;97963.25;;;10.18;100.00
56182;BME280;51963;46.052;14.544;2023-04-20T01:28:49;97978.50;;;10.23;100.00
56182;BME280;51963;46.052;14.544;2023-04-20T01:31:15;97956.28;;;10.10;100.00
56182;BME280;51963;46.052;14.544;2023-04-20T01:33:40;97980.50;;;10.21;100.00
56182;BME280;51963;46.052;14.544;2023-04-20T01:36:07;97983.53;;;10.18;100.00
56182;BME280;51963;46.052;14.544;2023-04-20T01:38:33;97970.88;;;10.06;100.00
56182;BME280;51963;46.052;14.544;2023-04-20T01:41:02;97977.03;;;10.13;100.00
56182;BME280;51963;46.052;14.544;2023-04-20T01:43:29;97981.06;;;10.09;100.00
56182;BME280;51963;46.052;14.544;2023-04-20T01:45:55;97968.41;;;9.98;100.00
56182;BME280;51963;46.052;14.544;2023-04-20T01:48:21;97984.31;;;10.11;100.00
56182;BME280;51963;46.052;14.544;2023-04-20T01:50:50;97983.91;;;10.08;100.00
56182;BME280;51963;46.052;14.544;2023-04-20T01:53:17;97974.53;;;10.05;100.00
56182;BME280;51963;46.052;14.544;2023-04-20T01:55:46;97975.94;;;10.01;100.00
56182;BME280;51963;46.052;14.544;2023-04-20T01:58:12;97972.50;;;10.01;100.00
56182;BME280;51963;46.052;14.544;2023-04-20T02:00:38;97977.19;;;10.05;100.00
56182;BME280;51963;46.052;14.544;2023-04-20T02:03:07;97972.88;;;9.97;100.00
56182;BME280;51963;46.052;14.544;2023-04-20T02:05:33;97971.66;;;10.00;100.00
56182;BME280;51963;46.052;14.544;2023-04-20T02:07:59;97974.13;;;10.02;100.00
56182;BME280;51963;46.052;14.544;2023-04-20T02:10:24;97968.44;;;10.05;100.00
56182;BME280;51963;46.052;14.544;2023-04-20T02:12:51;97968.41;;;9.98;100.00
56182;BME280;51963;46.052;14.544;2023-04-20T02:15:16;97969.22;;;9.98;100.00
56182;BME280;51963;46.052;14.544;2023-04-20T02:17:42;97956.19;;;9.97;100.00
56182;BME280;51963;46.052;14.544;2023-04-20T02:20:09;97975.31;;;9.99;100.00
56182;BME280;51963;46.052;14.544;2023-04-20T02:22:36;97972.44;;;9.94;100.00
56182;BME280;51963;46.052;14.544;2023-04-20T02:25:03;97974.50;;;9.98;100.00
56182;BME280;51963;46.052;14.544;2023-04-20T02:27:33;97953.25;;;9.78;100.00
56182;BME280;51963;46.052;14.544;2023-04-20T02:30:01;97969.94;;;9.86;100.00
56182;BME280;51963;46.052;14.544;2023-04-20T02:32:28;97948.09;;;9.70;100.00
56182;BME280;51963;46.052;14.544;2023-04-20T02:34:56;97967.91;;;9.81;100.00
56182;BME280;51963;46.052;14.544;2023-04-20T02:37:24;97963.00;;;9.78;100.00
56182;BME280;51963;46.052;14.544;2023-04-20T02:39:50;97966.69;;;9.83;100.00
56182;BME280;51963;46.052;14.544;2023-04-20T02:42:16;97970.72;;;9.79;100.00
56182;BME280;51963;46.052;14.544;2023-04-20T02:44:42;97962.63;;;9.88;100.00
56182;BME280;51963;46.052;14.544;2023-04-20T02:47:08;97966.69;;;9.83;100.00
56182;BME280;51963;46.052;14.544;2023-04-20T02:49:34;97958.50;;;9.78;100.00
56182;BME280;51963;46.052;14.544;2023-04-20T02:52:02;97955.25;;;9.76;100.00
56182;BME280;51963;46.052;14.544;2023-04-20T02:54:28;97971.09;;;9.76;100.00
56182;BME280;51963;46.052;14.544;2023-04-20T02:56:54;97961.94;;;9.72;100.00
56182;BME280;51963;46.052;14.544;2023-04-20T02:59:22;97956.88;;;9.77;99.87
56182;BME280;51963;46.052;14.544;2023-04-20T03:01:58;97968.66;;;9.75;99.68
56182;BME280;51963;46.052;14.544;2023-04-20T03:04:24;97961.69;;;9.67;99.90
56182;BME280;51963;46.052;14.544;2023-04-20T03:07:08;97966.78;;;9.68;100.00
56182;BME280;51963;46.052;14.544;2023-04-20T03:09:36;97962.44;;;9.61;100.00
56182;BME280;51963;46.052;14.544;2023-04-20T03:12:20;97959.25;;;9.65;99.94
56182;BME280;51963;46.052;14.544;2023-04-20T03:14:58;97940.22;;;9.48;99.69
56182;BME280;51963;46.052;14.544;2023-04-20T03:17:37;97967.72;;;9.61;99.47
56182;BME280;51963;46.052;14.544;2023-04-20T03:20:04;97962.66;;;9.59;99.84
56182;BME280;51963;46.052;14.544;2023-04-20T03:22:30;97946.03;;;9.37;99.98
56182;BME280;51963;46.052;14.544;2023-04-20T03:24:58;97973.53;;;9.49;100.00
56182;BME280;51963;46.052;14.544;2023-04-20T03:27:50;97951.00;;;9.47;99.56
56182;BME280;51963;46.052;14.544;2023-04-20T03:30:18;97972.59;;;9.57;100.00
56182;BME280;51963;46.052;14.544;2023-04-20T03:32:48;97977.88;;;9.57;100.00
56182;BME280;51963;46.052;14.544;2023-04-20T03:35:14;97986.78;;;9.56;100.00
56182;BME280;51963;46.052;14.544;2023-04-20T03:37:41;97983.69;;;9.52;100.00
56182;BME280;51963;46.052;14.544;2023-04-20T03:40:07;97965.38;;;9.44;100.00
56182;BME280;51963;46.052;14.544;2023-04-20T03:42:34;97976.16;;;9.49;100.00
56182;BME280;51963;46.052;14.544;2023-04-20T03:45:03;97977.81;;;9.50;99.24
56182;BME280;51963;46.052;14.544;2023-04-20T03:47:31;97981.81;;;9.46;99.80
56182;BME280;51963;46.052;14.544;2023-04-20T03:49:57;97977.41;;;9.53;99.53
56182;BME280;51963;46.052;14.544;2023-04-20T03:52:22;97967.63;;;9.47;99.09
56182;BME280;51963;46.052;14.544;2023-04-20T03:54:48;97980.66;;;9.49;99.69
56182;BME280;51963;46.052;14.544;2023-04-20T03:57:15;97976.16;;;9.49;99.45
56182;BME280;51963;46.052;14.544;2023-04-20T03:59:42;97971.22;;;9.39;99.70
56182;BME280;51963;46.052;14.544;2023-04-20T04:02:10;98000.13;;;9.48;100.00
56182;BME280;51963;46.052;14.544;2023-04-20T04:04:39;97994.22;;;9.46;98.98
56182;BME280;51963;46.052;14.544;2023-04-20T04:07:05;97972.41;;;9.37;99.34
56182;BME280;51963;46.052;14.544;2023-04-20T04:09:31;97982.78;;;9.38;98.37
56182;BME280;51963;46.052;14.544;2023-04-20T04:11:57;98000.91;;;9.48;97.96
56182;BME280;51963;46.052;14.544;2023-04-20T04:14:25;98002.13;;;9.46;99.10
56182;BME280;51963;46.052;14.544;2023-04-20T04:16:51;98011.09;;;9.51;99.00
56182;BME280;51963;46.052;14.544;2023-04-20T04:19:18;97996.03;;;9.45;98.67
56182;BME280;51963;46.052;14.544;2023-04-20T04:21:44;98004.94;;;9.44;99.23
56182;BME280;51963;46.052;14.544;2023-04-20T04:24:12;98000.03;;;9.41;98.42
56182;BME280;51963;46.052;14.544;2023-04-20T04:26:50;98004.16;;;9.44;97.88
56182;BME280;51963;46.052;14.544;2023-04-20T04:29:16;98004.16;;;9.44;98.54
56182;BME280;51963;46.052;14.544;2023-04-20T04:31:44;98013.44;;;9.39;99.29
56182;BME280;51963;46.052;14.544;2023-04-20T04:34:15;97978.56;;;9.22;98.16
56182;BME280;51963;46.052;14.544;2023-04-20T04:36:46;98002.19;;;9.31;97.77
56182;BME280;51963;46.052;14.544;2023-04-20T04:39:16;98009.41;;;9.44;97.83
56182;BME280;51963;46.052;14.544;2023-04-20T04:41:50;98016.25;;;9.38;98.26
56182;BME280;51963;46.052;14.544;2023-04-20T04:44:24;98013.06;;;9.43;97.89
56182;BME280;51963;46.052;14.544;2023-04-20T04:46:54;98021.16;;;9.41;98.25
56182;BME280;51963;46.052;14.544;2023-04-20T04:49:19;98022.16;;;9.40;97.23
56182;BME280;51963;46.052;14.544;2023-04-20T04:51:46;98018.47;;;9.34;97.24
56182;BME280;51963;46.052;14.544;2023-04-20T04:54:12;98020.28;;;9.34;97.64
56182;BME280;51963;46.052;14.544;2023-04-20T04:56:38;98030.06;;;9.40;97.10
56182;BME280;51963;46.052;14.544;2023-04-20T04:59:03;98023.78;;;9.41;98.20
56182;BME280;51963;46.052;14.544;2023-04-20T05:01:29;98028.66;;;9.37;98.86
56182;BME280;51963;46.052;14.544;2023-04-20T05:03:55;98026.00;;;9.37;98.36
56182;BME280;51963;46.052;14.544;2023-04-20T05:06:21;98029.66;;;9.36;98.71
56182;BME280;51963;46.052;14.544;2023-04-20T05:08:46;98002.69;;;9.19;98.45
56182;BME280;51963;46.052;14.544;2023-04-20T05:11:12;98035.34;;;9.40;98.42
56182;BME280;51963;46.052;14.544;2023-04-20T05:13:38;98029.03;;;9.34;97.94
56182;BME280;51963;46.052;14.544;2023-04-20T05:16:04;98035.34;;;9.40;97.89
56182;BME280;51963;46.052;14.544;2023-04-20T05:18:30;98037.00;;;9.41;98.88
56182;BME280;51963;46.052;14.544;2023-04-20T05:20:56;98024.13;;;9.31;97.59
56182;BME280;51963;46.052;14.544;2023-04-20T05:23:22;98038.63;;;9.42;97.59
56182;BME280;51963;46.052;14.544;2023-04-20T05:25:47;98043.34;;;9.47;98.21
56182;BME280;51963;46.052;14.544;2023-04-20T05:28:13;98010.47;;;9.28;99.12
56182;BME280;51963;46.052;14.544;2023-04-20T05:30:39;98047.63;;;9.48;98.74
56182;BME280;51963;46.052;14.544;2023-04-20T05:33:04;98021.91;;;9.35;99.26
56182;BME280;51963;46.052;14.544;2023-04-20T05:35:30;98051.31;;;9.53;98.46
56182;BME280;51963;46.052;14.544;2023-04-20T05:37:56;98042.00;;;9.58;97.81
56182;BME280;51963;46.052;14.544;2023-04-20T05:40:25;98049.13;;;9.57;97.66
56182;BME280;51963;46.052;14.544;2023-04-20T05:42:50;98055.53;;;9.69;97.09
56182;BME280;51963;46.052;14.544;2023-04-20T05:45:16;98041.13;;;9.72;97.26
56182;BME280;51963;46.052;14.544;2023-04-20T05:47:51;98054.44;;;9.86;96.61
56182;BME280;51963;46.052;14.544;2023-04-20T05:50:17;98056.28;;;9.85;96.05
56182;BME280;51963;46.052;14.544;2023-04-20T05:52:43;98051.72;;;10.01;95.21
56182;BME280;51963;46.052;14.544;2023-04-20T05:55:08;98057.41;;;10.04;94.92
56182;BME280;51963;46.052;14.544;2023-04-20T05:57:34;98052.59;;;10.08;94.70
56182;BME280;51963;46.052;14.544;2023-04-20T06:00:11;98057.34;;;10.19;93.62
56182;BME280;51963;46.052;14.544;2023-04-20T06:02:41;98068.47;;;10.15;93.54
56182;BME280;51963;46.052;14.544;2023-04-20T06:05:08;98068.22;;;10.09;93.56
56182;BME280;51963;46.052;14.544;2023-04-20T06:07:35;98050.41;;;9.90;93.97
56182;BME280;51963;46.052;14.544;2023-04-20T06:10:01;98060.97;;;9.90;94.76
56182;BME280;51963;46.052;14.544;2023-04-20T06:12:27;98068.56;;;10.00;94.14
56182;BME280;51963;46.052;14.544;2023-04-20T06:14:57;98073.72;;;10.08;93.66
56182;BME280;51963;46.052;14.544;2023-04-20T06:17:22;98077.94;;;10.02;93.39
56182;BME280;51963;46.052;14.544;2023-04-20T06:19:48;98075.41;;;9.94;93.58
56182;BME280;51963;46.052;14.544;2023-04-20T06:22:14;98070.25;;;10.07;92.61
56182;BME280;51963;46.052;14.544;2023-04-20T06:24:41;98068.84;;;10.11;93.00
56182;BME280;51963;46.052;14.544;2023-04-20T06:27:10;98069.03;;;10.38;91.38
56182;BME280;51963;46.052;14.544;2023-04-20T06:29:36;98070.81;;;10.31;91.06
56182;BME280;51963;46.052;14.544;2023-04-20T06:32:04;98051.53;;;10.37;90.84
56182;BME280;51963;46.052;14.544;2023-04-20T06:34:30;98088.25;;;10.54;89.97
56182;BME280;51963;46.052;14.544;2023-04-20T06:36:56;98056.81;;;10.37;89.23
56182;BME280;51963;46.052;14.544;2023-04-20T06:39:22;98074.31;;;10.38;88.91
56182;BME280;51963;46.052;14.544;2023-04-20T06:41:48;98089.50;;;10.51;88.31
56182;BME280;51963;46.052;14.544;2023-04-20T06:44:14;98084.22;;;10.58;88.97
56182;BME280;51963;46.052;14.544;2023-04-20T06:46:40;98088.75;;;10.64;88.23
56182;BME280;51963;46.052;14.544;2023-04-20T06:49:05;98093.44;;;10.62;87.96
56182;BME280;51963;46.052;14.544;2023-04-20T06:51:31;98091.72;;;10.83;87.29
56182;BME280;51963;46.052;14.544;2023-04-20T06:54:00;98090.53;;;10.57;87.88
56182;BME280;51963;46.052;14.544;2023-04-20T06:56:25;98081.78;;;10.56;86.95
56182;BME280;51963;46.052;14.544;2023-04-20T06:58:51;98090.34;;;10.59;87.22
56182;BME280;51963;46.052;14.544;2023-04-20T07:01:17;98091.16;;;10.59;87.69
56182;BME280;51963;46.052;14.544;2023-04-20T07:03:43;98097.19;;;10.46;86.38
56182;BME280;51963;46.052;14.544;2023-04-20T07:06:10;98087.66;;;10.87;85.58
56182;BME280;51963;46.052;14.544;2023-04-20T07:08:38;98087.25;;;10.90;85.00
56182;BME280;51963;46.052;14.544;2023-04-20T07:11:03;98048.84;;;10.59;83.86
56182;BME280;51963;46.052;14.544;2023-04-20T07:13:30;98085.63;;;10.89;82.68
56182;BME280;51963;46.052;14.544;2023-04-20T07:15:56;98076.63;;;10.77;83.76
56182;BME280;51963;46.052;14.544;2023-04-20T07:18:21;98084.06;;;11.02;83.60
56182;BME280;51963;46.052;14.544;2023-04-20T07:20:47;98087.72;;;11.00;82.43
56182;BME280;51963;46.052;14.544;2023-04-20T07:23:13;98087.28;;;10.97;82.59
56182;BME280;51963;46.052;14.544;2023-04-20T07:25:39;98080.72;;;10.86;82.94
56182;BME280;51963;46.052;14.544;2023-04-20T07:28:04;98092.50;;;10.77;83.49
56182;BME280;51963;46.052;14.544;2023-04-20T07:30:30;98092.56;;;10.90;82.08
56182;BME280;51963;46.052;14.544;2023-04-20T07:32:56;98095.09;;;11.12;81.09
56182;BME280;51963;46.052;14.544;2023-04-20T07:35:22;98098.34;;;11.21;80.42
56182;BME280;51963;46.052;14.544;2023-04-20T07:37:48;98092.44;;;11.19;79.83
56182;BME280;51963;46.052;14.544;2023-04-20T07:40:13;98098.75;;;11.11;79.33
56182;BME280;51963;46.052;14.544;2023-04-20T07:42:41;98107.69;;;11.10;77.72
56182;BME280;51963;46.052;14.544;2023-04-20T07:45:09;98099.59;;;11.18;77.86
56182;BME280;51963;46.052;14.544;2023-04-20T07:47:36;98098.34;;;11.14;77.78
56182;BME280;51963;46.052;14.544;2023-04-20T07:50:03;98066.97;;;11.04;76.83
56182;BME280;51963;46.052;14.544;2023-04-20T07:52:30;98086.97;;;11.20;77.58
56182;BME280;51963;46.052;14.544;2023-04-20T07:54:56;98077.31;;;10.99;78.40
56182;BME280;51963;46.052;14.544;2023-04-20T07:57:25;98083.28;;;11.08;77.86
56182;BME280;51963;46.052;14.544;2023-04-20T07:59:51;98085.31;;;11.12;76.49
56182;BME280;51963;46.052;14.544;2023-04-20T08:02:19;98098.22;;;11.36;76.60
56182;BME280;51963;46.052;14.544;2023-04-20T08:04:45;98102.69;;;11.35;75.23
56182;BME280;51963;46.052;14.544;2023-04-20T08:07:13;98080.88;;;11.26;75.05
56182;BME280;51963;46.052;14.544;2023-04-20T08:09:38;98104.31;;;11.36;76.53
56182;BME280;51963;46.052;14.544;2023-04-20T08:12:04;98099.16;;;11.14;76.87
56182;BME280;51963;46.052;14.544;2023-04-20T08:14:30;98096.81;;;11.40;74.91
56182;BME280;51963;46.052;14.544;2023-04-20T08:16:56;98123.63;;;11.23;77.34
56182;BME280;51963;46.052;14.544;2023-04-20T08:19:22;98124.47;;;11.37;76.66
56182;BME280;51963;46.052;14.544;2023-04-20T08:21:52;98115.28;;;11.33;76.11
56182;BME280;51963;46.052;14.544;2023-04-20T08:24:18;98116.03;;;11.13;77.94
56182;BME280;51963;46.052;14.544;2023-04-20T08:26:45;98104.47;;;10.73;79.01
56182;BME280;51963;46.052;14.544;2023-04-20T08:29:10;98115.75;;;10.95;78.77
56182;BME280;51963;46.052;14.544;2023-04-20T08:31:36;98112.72;;;10.98;78.66
56182;BME280;51963;46.052;14.544;2023-04-20T08:34:02;98112.13;;;11.03;78.91
56182;BME280;51963;46.052;14.544;2023-04-20T08:36:27;98122.00;;;11.22;78.36
56182;BME280;51963;46.052;14.544;2023-04-20T08:38:56;98115.91;;;11.28;77.23
56182;BME280;51963;46.052;14.544;2023-04-20T08:41:25;98114.06;;;11.29;77.71
56182;BME280;51963;46.052;14.544;2023-04-20T08:43:50;98113.88;;;11.30;77.91
56182;BME280;51963;46.052;14.544;2023-04-20T08:46:16;98111.00;;;11.25;77.04
56182;BME280;51963;46.052;14.544;2023-04-20T08:48:45;98097.06;;;11.03;77.17
56182;BME280;51963;46.052;14.544;2023-04-20T08:51:14;98117.06;;;11.12;76.79
56182;BME280;51963;46.052;14.544;2023-04-20T08:53:40;98123.63;;;11.23;77.52
56182;BME280;51963;46.052;14.544;2023-04-20T08:56:06;98127.25;;;11.15;78.35
56182;BME280;51963;46.052;14.544;2023-04-20T08:58:32;98121.19;;;11.28;78.36
56182;BME280;51963;46.052;14.544;2023-04-20T09:00:58;98122.84;;;11.36;77.01
56182;BME280;51963;46.052;14.544;2023-04-20T09:03:34;98121.91;;;11.64;76.68
56182;BME280;51963;46.052;14.544;2023-04-20T09:06:00;98104.38;;;11.56;75.83
56182;BME280;51963;46.052;14.544;2023-04-20T09:08:37;98113.31;;;11.42;76.33
56182;BME280;51963;46.052;14.544;2023-04-20T09:11:04;98124.06;;;11.34;75.57
56182;BME280;51963;46.052;14.544;2023-04-20T09:13:30;98125.53;;;11.43;76.88
56182;BME280;51963;46.052;14.544;2023-04-20T09:15:55;98103.88;;;11.26;76.29
56182;BME280;51963;46.052;14.544;2023-04-20T09:18:21;98105.72;;;11.32;75.75
56182;BME280;51963;46.052;14.544;2023-04-20T09:20:49;98122.13;;;11.83;74.78
56182;BME280;51963;46.052;14.544;2023-04-20T09:23:17;98116.88;;;12.10;74.18
56182;BME280;51963;46.052;14.544;2023-04-20T09:25:44;98115.06;;;12.10;72.40
56182;BME280;51963;46.052;14.544;2023-04-20T09:28:11;98114.38;;;11.88;73.16
56182;BME280;51963;46.052;14.544;2023-04-20T09:30:43;98120.72;;;11.94;73.36
56182;BME280;51963;46.052;14.544;2023-04-20T09:33:10;98116.91;;;12.03;72.09
56182;BME280;51963;46.052;14.544;2023-04-20T09:35:43;98108.13;;;12.09;73.14
56182;BME280;51963;46.052;14.544;2023-04-20T09:38:11;98118.13;;;12.21;73.01
56182;BME280;51963;46.052;14.544;2023-04-20T09:40:39;98097.88;;;11.86;72.12
56182;BME280;51963;46.052;14.544;2023-04-20T09:43:12;98114.84;;;12.18;71.25
56182;BME280;51963;46.052;14.544;2023-04-20T09:45:41;98115.66;;;12.26;71.08
56182;BME280;51963;46.052;14.544;2023-04-20T09:48:07;98102.41;;;12.32;71.04
56182;BME280;51963;46.052;14.544;2023-04-20T09:50:35;98104.44;;;12.17;72.66
56182;BME280;51963;46.052;14.544;2023-04-20T09:53:05;98102.63;;;12.17;72.69
56182;BME280;51963;46.052;14.544;2023-04-20T09:55:31;98084.25;;;12.36;70.46
56182;BME280;51963;46.052;14.544;2023-04-20T09:57:57;98092.34;;;12.68;70.39
56182;BME280;51963;46.052;14.544;2023-04-20T10:00:24;98100.03;;;12.90;68.41
56182;BME280;51963;46.052;14.544;2023-04-20T10:02:50;98104.28;;;13.04;68.24
56182;BME280;51963;46.052;14.544;2023-04-20T10:05:16;98086.31;;;13.06;67.92
56182;BME280;51963;46.052;14.544;2023-04-20T10:07:43;98105.25;;;13.17;68.85
56182;BME280;51963;46.052;14.544;2023-04-20T10:10:10;98103.13;;;13.32;68.93
56182;BME280;51963;46.052;14.544;2023-04-20T10:12:58;98109.53;;;13.63;65.63
56182;BME280;51963;46.052;14.544;2023-04-20T10:15:37;98113.66;;;13.07;68.39
56182;BME280;51963;46.052;14.544;2023-04-20T10:18:19;98113.09;;;12.98;67.73
56182;BME280;51963;46.052;14.544;2023-04-20T10:20:47;98113.41;;;13.22;67.74
56182;BME280;51963;46.052;14.544;2023-04-20T10:23:13;98106.09;;;13.04;66.67
56182;BME280;51963;46.052;14.544;2023-04-20T10:25:54;98110.50;;;13.30;66.38
56182;BME280;51963;46.052;14.544;2023-04-20T10:28:20;98107.66;;;13.25;66.76
56182;BME280;51963;46.052;14.544;2023-04-20T10:30:51;98098.38;;;13.02;67.14
56182;BME280;51963;46.052;14.544;2023-04-20T10:33:17;98093.78;;;13.30;66.63
56182;BME280;51963;46.052;14.544;2023-04-20T10:35:49;98074.13;;;13.44;66.05
56182;BME280;51963;46.052;14.544;2023-04-20T10:38:29;98095.00;;;13.20;68.21
56182;BME280;51963;46.052;14.544;2023-04-20T10:40:55;98101.75;;;13.69;68.02
56182;BME280;51963;46.052;14.544;2023-04-20T10:43:21;98104.75;;;13.40;68.52
56182;BME280;51963;46.052;14.544;2023-04-20T10:45:48;98085.41;;;13.19;68.13
56182;BME280;51963;46.052;14.544;2023-04-20T10:48:14;98090.53;;;13.21;68.47
56182;BME280;51963;46.052;14.544;2023-04-20T10:50:40;98098.13;;;13.04;69.20
56182;BME280;51963;46.052;14.544;2023-04-20T10:53:16;98088.06;;;13.26;69.06
56182;BME280;51963;46.052;14.544;2023-04-20T10:55:42;98097.81;;;13.32;69.63
56182;BME280;51963;46.052;14.544;2023-04-20T10:58:08;98086.31;;;13.52;69.80
56182;BME280;51963;46.052;14.544;2023-04-20T11:00:34;98090.47;;;13.34;67.65
56182;BME280;51963;46.052;14.544;2023-04-20T11:02:59;98076.53;;;13.46;67.62
56182;BME280;51963;46.052;14.544;2023-04-20T11:05:28;98089.78;;;14.10;67.74
56182;BME280;51963;46.052;14.544;2023-04-20T11:07:54;98097.06;;;13.96;67.32
56182;BME280;51963;46.052;14.544;2023-04-20T11:10:22;98097.38;;;14.06;65.86
56182;BME280;51963;46.052;14.544;2023-04-20T11:12:49;98088.06;;;14.41;65.43
56182;BME280;51963;46.052;14.544;2023-04-20T11:15:16;98088.28;;;14.21;66.71
56182;BME280;51963;46.052;14.544;2023-04-20T11:17:42;98064.66;;;14.06;64.18
56182;BME280;51963;46.052;14.544;2023-04-20T11:20:13;98065.09;;;14.03;64.91
56182;BME280;51963;46.052;14.544;2023-04-20T11:22:42;98085.38;;;14.22;65.36
56182;BME280;51963;46.052;14.544;2023-04-20T11:25:09;98065.38;;;13.94;66.01
56182;BME280;51963;46.052;14.544;2023-04-20T11:27:36;98081.25;;;14.27;63.40
56182;BME280;51963;46.052;14.544;2023-04-20T11:30:03;98080.69;;;13.99;65.15
56182;BME280;51963;46.052;14.544;2023-04-20T11:32:34;98085.78;;;14.26;63.16
56182;BME280;51963;46.052;14.544;2023-04-20T11:35:03;98085.06;;;14.37;63.18
56182;BME280;51963;46.052;14.544;2023-04-20T11:37:33;98074.09;;;14.71;61.29
56182;BME280;51963;46.052;14.544;2023-04-20T11:40:03;98081.91;;;14.85;61.41
56182;BME280;51963;46.052;14.544;2023-04-20T11:42:35;98084.72;;;15.08;61.51
56182;BME280;51963;46.052;14.544;2023-04-20T11:45:01;98076.94;;;15.25;60.75
56182;BME280;51963;46.052;14.544;2023-04-20T11:47:27;98079.34;;;15.27;60.76
56182;BME280;51963;46.052;14.544;2023-04-20T11:49:53;98075.16;;;15.19;60.18
56182;BME280;51963;46.052;14.544;2023-04-20T11:52:19;98080.72;;;14.99;61.56
56182;BME280;51963;46.052;14.544;2023-04-20T11:54:44;98069.19;;;14.87;61.20
56182;BME280;51963;46.052;14.544;2023-04-20T11:57:10;98083.19;;;14.38;63.36
56182;BME280;51963;46.052;14.544;2023-04-20T11:59:38;98072.91;;;13.98;63.83
56182;BME280;51963;46.052;14.544;2023-04-20T12:02:04;98087.22;;;13.71;66.52
56182;BME280;51963;46.052;14.544;2023-04-20T12:04:30;98078.44;;;13.71;66.18
56182;BME280;51963;46.052;14.544;2023-04-20T12:06:57;98078.50;;;14.15;66.17
56182;BME280;51963;46.052;14.544;2023-04-20T12:09:25;98075.72;;;14.03;65.47
56182;BME280;51963;46.052;14.544;2023-04-20T12:11:50;98075.28;;;14.06;67.54
56182;BME280;51963;46.052;14.544;2023-04-20T12:14:16;98065.63;;;13.86;67.81
56182;BME280;51963;46.052;14.544;2023-04-20T12:16:42;98052.34;;;13.61;66.99
56182;BME280;51963;46.052;14.544;2023-04-20T12:19:12;98065.22;;;13.89;66.15
56182;BME280;51963;46.052;14.544;2023-04-20T12:21:38;98053.97;;;13.62;68.41
56182;BME280;51963;46.052;14.544;2023-04-20T12:24:04;98070.59;;;13.83;67.56
56182;BME280;51963;46.052;14.544;2023-04-20T12:26:30;98051.72;;;13.91;66.96
56182;BME280;51963;46.052;14.544;2023-04-20T12:28:56;98073.19;;;14.15;66.22
56182;BME280;51963;46.052;14.544;2023-04-20T12:31:22;98072.34;;;13.63;68.65
56182;BME280;51963;46.052;14.544;2023-04-20T12:33:49;98075.78;;;13.71;70.54
56182;BME280;51963;46.052;14.544;2023-04-20T12:36:14;98068.47;;;13.66;69.42
56182;BME280;51963;46.052;14.544;2023-04-20T12:38:40;98079.25;;;13.71;68.73
56182;BME280;51963;46.052;14.544;2023-04-20T12:41:06;98070.97;;;13.54;71.35
56182;BME280;51963;46.052;14.544;2023-04-20T12:43:32;98069.19;;;13.48;70.96
56182;BME280;51963;46.052;14.544;2023-04-20T12:45:58;98067.69;;;13.13;77.81
56182;BME280;51963;46.052;14.544;2023-04-20T12:48:24;98073.28;;;12.98;80.70
56182;BME280;51963;46.052;14.544;2023-04-20T12:50:50;98069.13;;;13.09;78.97